createdAt,value
2023-01-17T00:00:23.105Z,2.72
2023-01-17T00:02:25.337Z,2.72
2023-01-17T00:04:48.803Z,2.73
2023-01-17T00:07:09.657Z,2.76
2023-01-17T00:09:30.856Z,2.69
2023-01-17T00:11:32.893Z,2.72
2023-01-17T00:13:34.929Z,2.67
2023-01-17T00:15:40.015Z,2.71
2023-01-17T00:17:42.224Z,2.73
2023-01-17T00:20:02.717Z,2.73
2023-01-17T00:22:41.738Z,2.74
2023-01-17T00:25:03.997Z,2.75
2023-01-17T00:27:15.027Z,2.78
2023-01-17T00:29:17.046Z,2.77
2023-01-17T00:31:19.102Z,2.82
2023-01-17T00:33:22.111Z,2.83
2023-01-17T00:35:25.137Z,2.80
2023-01-17T00:37:27.088Z,2.83
2023-01-17T00:39:29.113Z,2.84
2023-01-17T00:41:31.098Z,2.85
2023-01-17T00:43:51.510Z,2.87
2023-01-17T00:46:12.390Z,2.87
2023-01-17T00:48:33.133Z,2.91
2023-01-17T00:50:55.924Z,2.94
2023-01-17T00:53:16.592Z,2.97
2023-01-17T00:55:37.261Z,2.97
2023-01-17T00:57:57.951Z,3.00
2023-01-17T01:00:18.812Z,3.03
2023-01-17T01:02:39.601Z,3.05
2023-01-17T01:05:00.558Z,3.07
2023-01-17T01:07:21.269Z,3.06
2023-01-17T01:09:42.099Z,3.06
2023-01-17T01:12:02.917Z,3.01
2023-01-17T01:14:24.580Z,3.04
2023-01-17T01:16:45.342Z,3.07
2023-01-17T01:19:05.872Z,3.09
2023-01-17T01:21:26.488Z,3.03
2023-01-17T01:23:47.177Z,3.03
2023-01-17T01:26:07.940Z,3.05
2023-01-17T01:28:31.093Z,3.05
2023-01-17T01:30:51.479Z,3.03
2023-01-17T01:33:12.147Z,3.06
2023-01-17T01:35:14.281Z,3.05
2023-01-17T01:37:16.304Z,3.05
2023-01-17T01:39:18.440Z,3.03
2023-01-17T01:41:20.677Z,3.03
2023-01-17T01:43:50.513Z,3.01
2023-01-17T01:45:55.660Z,3.03
2023-01-17T01:48:06.182Z,3.03
2023-01-17T01:50:10.700Z,3.09
2023-01-17T01:52:12.828Z,3.07
2023-01-17T01:54:22.636Z,3.08
2023-01-17T01:56:24.717Z,3.08
2023-01-17T01:58:28.676Z,3.04
2023-01-17T02:00:34.818Z,3.05
2023-01-17T02:02:36.885Z,3.09
2023-01-17T02:04:39.013Z,3.07
2023-01-17T02:06:50.346Z,3.08
2023-01-17T02:08:52.374Z,3.05
2023-01-17T02:10:54.541Z,3.03
2023-01-17T02:12:56.553Z,3.01
2023-01-17T02:14:59.105Z,3.01
2023-01-17T02:17:06.706Z,2.97
2023-01-17T02:19:30.944Z,2.92
2023-01-17T02:21:38.920Z,2.91
2023-01-17T02:24:05.863Z,2.88
2023-01-17T02:26:44.803Z,2.88
2023-01-17T02:29:24.280Z,2.82
2023-01-17T02:31:32.518Z,2.85
2023-01-17T02:34:01.391Z,2.79
2023-01-17T02:36:25.605Z,2.82
2023-01-17T02:38:50.005Z,2.79
2023-01-17T02:41:11.942Z,2.78
2023-01-17T02:43:16.362Z,2.82
2023-01-17T02:45:19.529Z,2.82
2023-01-17T02:47:27.414Z,2.79
2023-01-17T02:49:30.453Z,2.74
2023-01-17T02:51:56.365Z,2.74
2023-01-17T02:54:28.432Z,2.75
2023-01-17T02:56:54.605Z,2.75
2023-01-17T02:59:16.765Z,2.73
2023-01-17T03:01:39.008Z,2.73
2023-01-17T03:04:21.739Z,2.68
2023-01-17T03:06:50.034Z,2.71
2023-01-17T03:08:52.135Z,2.66
2023-01-17T03:10:54.290Z,2.65
2023-01-17T03:12:59.115Z,2.66
2023-01-17T03:15:01.220Z,2.67
2023-01-17T03:17:03.381Z,2.69
2023-01-17T03:19:05.485Z,2.69
2023-01-17T03:21:07.598Z,2.72
2023-01-17T03:23:09.693Z,2.68
2023-01-17T03:25:11.762Z,2.70
2023-01-17T03:27:13.848Z,2.67
2023-01-17T03:29:16.707Z,2.68
2023-01-17T03:31:20.105Z,2.68
2023-01-17T03:33:22.252Z,2.69
2023-01-17T03:35:24.270Z,2.68
2023-01-17T03:37:26.432Z,2.68
2023-01-17T03:39:28.449Z,2.68
2023-01-17T03:41:30.483Z,2.68
2023-01-17T03:43:32.535Z,2.70
2023-01-17T03:45:35.119Z,2.71
2023-01-17T03:47:37.198Z,2.72
2023-01-17T03:49:39.980Z,2.71
2023-01-17T03:51:42.139Z,2.70
2023-01-17T03:53:46.908Z,2.67
2023-01-17T03:55:49.007Z,2.69
2023-01-17T03:57:51.171Z,2.72
2023-01-17T03:59:53.203Z,2.73
2023-01-17T04:01:55.283Z,2.71
2023-01-17T04:03:57.381Z,2.70
2023-01-17T04:05:59.435Z,2.71
2023-01-17T04:08:01.474Z,2.74
2023-01-17T04:10:03.925Z,2.75
2023-01-17T04:12:06.120Z,2.73
2023-01-17T04:14:08.144Z,2.75
2023-01-17T04:16:13.465Z,2.76
2023-01-17T04:18:17.016Z,2.78
2023-01-17T04:20:37.525Z,2.77
2023-01-17T04:22:39.639Z,2.77
2023-01-17T04:24:41.716Z,2.79
2023-01-17T04:26:43.745Z,2.79
2023-01-17T04:28:45.820Z,2.81
2023-01-17T04:30:47.929Z,2.82
2023-01-17T04:32:50.273Z,2.81
2023-01-17T04:34:52.429Z,2.80
2023-01-17T04:36:54.571Z,2.78
2023-01-17T04:38:56.571Z,2.78
2023-01-17T04:40:58.703Z,2.80
2023-01-17T04:43:00.820Z,2.84
2023-01-17T04:45:03.162Z,2.86
2023-01-17T04:47:05.384Z,2.84
2023-01-17T04:49:07.440Z,2.84
2023-01-17T04:51:09.527Z,2.87
2023-01-17T04:53:11.581Z,2.88
2023-01-17T04:55:13.665Z,2.88
2023-01-17T04:57:19.145Z,2.86
2023-01-17T04:59:21.670Z,2.85
2023-01-17T05:01:23.893Z,2.86
2023-01-17T05:03:25.992Z,2.86
2023-01-17T05:05:28.026Z,2.89
2023-01-17T05:07:30.043Z,2.91
2023-01-17T05:09:32.124Z,2.90
2023-01-17T05:11:34.220Z,2.92
2023-01-17T05:13:36.263Z,2.87
2023-01-17T05:15:38.435Z,2.87
2023-01-17T05:17:40.523Z,2.85
2023-01-17T05:19:42.527Z,2.81
2023-01-17T05:21:44.562Z,2.80
2023-01-17T05:23:46.948Z,2.78
2023-01-17T05:25:48.956Z,2.79
2023-01-17T05:27:51.057Z,2.77
2023-01-17T05:29:53.177Z,2.77
2023-01-17T05:31:55.133Z,2.77
2023-01-17T05:33:57.204Z,2.72
2023-01-17T05:35:59.431Z,2.73
2023-01-17T05:38:01.533Z,2.72
2023-01-17T05:40:03.820Z,2.70
2023-01-17T05:42:05.917Z,2.68
2023-01-17T05:44:07.995Z,2.67
2023-01-17T05:46:10.037Z,2.68
2023-01-17T05:48:12.167Z,2.67
2023-01-17T05:50:34.472Z,2.66
2023-01-17T05:52:36.462Z,2.61
2023-01-17T05:54:38.519Z,2.63
2023-01-17T05:56:40.534Z,2.63
2023-01-17T05:58:42.567Z,2.65
2023-01-17T06:00:44.955Z,2.59
2023-01-17T06:02:47.131Z,2.62
2023-01-17T06:04:49.210Z,2.60
2023-01-17T06:06:51.352Z,2.60
2023-01-17T06:08:53.433Z,2.64
2023-01-17T06:10:55.578Z,2.63
2023-01-17T06:13:07.521Z,2.63
2023-01-17T06:15:10.109Z,2.59
2023-01-17T06:17:12.044Z,2.58
2023-01-17T06:19:14.086Z,2.55
2023-01-17T06:21:16.132Z,2.51
2023-01-17T06:23:18.248Z,2.53
2023-01-17T06:25:20.378Z,2.56
2023-01-17T06:27:22.474Z,2.54
2023-01-17T06:29:24.601Z,2.53
2023-01-17T06:31:26.799Z,2.53
2023-01-17T06:33:28.864Z,2.51
2023-01-17T06:35:31.176Z,2.53
2023-01-17T06:37:33.365Z,2.51
2023-01-17T06:39:35.432Z,2.51
2023-01-17T06:41:37.431Z,2.49
2023-01-17T06:43:40.115Z,2.51
2023-01-17T06:45:42.144Z,2.47
2023-01-17T06:47:44.271Z,2.46
2023-01-17T06:49:46.414Z,2.48
2023-01-17T06:51:48.428Z,2.46
2023-01-17T06:53:50.490Z,2.47
2023-01-17T06:55:56.138Z,2.44
2023-01-17T06:57:59.653Z,2.45
2023-01-17T07:00:02.179Z,2.42
2023-01-17T07:02:04.292Z,2.41
2023-01-17T07:04:06.546Z,2.39
2023-01-17T07:06:09.642Z,2.35
2023-01-17T07:08:11.807Z,2.36
2023-01-17T07:10:14.414Z,2.34
2023-01-17T07:12:16.328Z,2.29
2023-01-17T07:14:18.456Z,2.28
2023-01-17T07:16:20.678Z,2.26
2023-01-17T07:18:25.705Z,2.24
2023-01-17T07:20:27.873Z,2.24
2023-01-17T07:22:30.029Z,2.25
2023-01-17T07:24:33.044Z,2.18
2023-01-17T07:26:37.830Z,2.21
2023-01-17T07:28:39.897Z,2.20
2023-01-17T07:30:41.945Z,2.20
2023-01-17T07:32:44.054Z,2.15
2023-01-17T07:34:46.082Z,2.20
2023-01-17T07:36:49.782Z,2.16
2023-01-17T07:38:51.900Z,2.26
2023-01-17T07:40:58.199Z,2.19
2023-01-17T07:43:03.627Z,2.19
2023-01-17T07:45:06.812Z,2.25
2023-01-17T07:47:08.839Z,2.24
2023-01-17T07:49:10.939Z,2.29
2023-01-17T07:51:13.126Z,2.28
2023-01-17T07:53:15.280Z,2.30
2023-01-17T07:55:17.724Z,2.30
2023-01-17T07:57:19.944Z,2.34
2023-01-17T07:59:22.017Z,2.37
2023-01-17T08:01:24.291Z,2.42
2023-01-17T08:03:32.408Z,2.44
2023-01-17T08:05:34.606Z,2.43
2023-01-17T08:07:36.773Z,2.45
2023-01-17T08:09:38.803Z,2.42
2023-01-17T08:11:40.868Z,2.48
2023-01-17T08:13:43.138Z,2.47
2023-01-17T08:15:47.626Z,2.51
2023-01-17T08:17:53.369Z,2.50
2023-01-17T08:19:55.450Z,2.55
2023-01-17T08:21:57.560Z,2.57
2023-01-17T08:23:59.721Z,2.52
2023-01-17T08:26:01.953Z,2.54
2023-01-17T08:28:05.393Z,2.57
2023-01-17T08:30:08.591Z,2.56
2023-01-17T08:32:10.621Z,2.57
2023-01-17T08:34:14.246Z,2.54
2023-01-17T08:36:16.396Z,2.54
2023-01-17T08:38:18.734Z,2.55
2023-01-17T08:40:20.817Z,2.53
2023-01-17T08:42:22.844Z,2.54
2023-01-17T08:44:25.035Z,2.57
2023-01-17T08:46:27.105Z,2.52
2023-01-17T08:48:29.128Z,2.53
2023-01-17T08:50:31.171Z,2.55
2023-01-17T08:52:33.604Z,2.53
2023-01-17T08:54:35.654Z,2.58
2023-01-17T08:56:37.719Z,2.57
2023-01-17T08:58:41.488Z,2.61
2023-01-17T09:00:43.620Z,2.61
2023-01-17T09:02:45.675Z,2.59
2023-01-17T09:04:48.951Z,2.60
2023-01-17T09:06:50.962Z,2.59
2023-01-17T09:08:54.905Z,2.63
2023-01-17T09:10:56.947Z,2.64
2023-01-17T09:12:58.945Z,2.66
2023-01-17T09:15:02.439Z,2.63
2023-01-17T09:17:06.884Z,2.68
2023-01-17T09:19:09.533Z,2.69
2023-01-17T09:21:16.387Z,2.71
2023-01-17T09:23:18.508Z,2.72
2023-01-17T09:25:20.535Z,2.73
2023-01-17T09:27:22.566Z,2.75
2023-01-17T09:29:24.722Z,2.77
2023-01-17T09:31:27.302Z,2.79
2023-01-17T09:33:29.373Z,2.79
2023-01-17T09:35:31.763Z,2.84
2023-01-17T09:37:33.840Z,2.85
2023-01-17T09:39:35.932Z,2.88
2023-01-17T09:42:11.033Z,2.89
2023-01-17T09:44:33.661Z,2.91
2023-01-17T09:46:45.102Z,2.94
2023-01-17T09:48:47.129Z,2.99
2023-01-17T09:50:54.893Z,3.02
2023-01-17T09:53:07.211Z,3.05
2023-01-17T09:55:14.790Z,3.09
2023-01-17T09:57:58.026Z,3.14
2023-01-17T10:00:34.154Z,3.19
2023-01-17T10:03:01.388Z,3.23
2023-01-17T10:05:34.519Z,3.26
2023-01-17T10:08:16.546Z,3.34
2023-01-17T10:10:42.442Z,3.31
2023-01-17T10:13:05.086Z,3.39
2023-01-17T10:15:57.030Z,3.45
2023-01-17T10:18:29.905Z,3.56
2023-01-17T10:20:53.989Z,3.61
2023-01-17T10:23:12.694Z,3.64
2023-01-17T10:25:52.585Z,3.71
2023-01-17T10:27:58.452Z,3.74
2023-01-17T10:30:03.029Z,3.85
2023-01-17T10:32:05.512Z,3.87
2023-01-17T10:34:19.773Z,3.95
2023-01-17T10:36:38.016Z,4.03
2023-01-17T10:38:42.024Z,4.07
2023-01-17T10:40:54.926Z,4.22
2023-01-17T10:42:59.954Z,4.34
2023-01-17T10:45:18.696Z,4.30
2023-01-17T10:47:23.087Z,4.35
2023-01-17T10:49:26.347Z,4.38
2023-01-17T10:52:00.182Z,4.42
2023-01-17T10:54:36.082Z,4.45
2023-01-17T10:56:38.165Z,4.46
2023-01-17T10:58:40.257Z,4.49
2023-01-17T11:01:00.147Z,4.51
2023-01-17T11:03:02.328Z,4.45
2023-01-17T11:05:15.981Z,4.45
2023-01-17T11:07:24.100Z,4.51
2023-01-17T11:09:42.093Z,4.57
2023-01-17T11:11:50.410Z,4.60
2023-01-17T11:13:53.645Z,4.59
2023-01-17T11:16:07.835Z,4.60
2023-01-17T11:18:16.474Z,4.63
2023-01-17T11:20:38.853Z,4.60
2023-01-17T11:22:43.354Z,4.60
2023-01-17T11:24:53.338Z,4.58
2023-01-17T11:26:55.395Z,4.65
2023-01-17T11:29:35.894Z,4.71
2023-01-17T11:31:38.809Z,4.73
2023-01-17T11:33:49.204Z,4.77
2023-01-17T11:35:51.227Z,4.82
2023-01-17T11:38:20.161Z,4.86
2023-01-17T11:40:41.294Z,4.95
2023-01-17T11:42:43.437Z,5.02
2023-01-17T11:44:45.445Z,4.98
2023-01-17T11:46:47.605Z,4.92
2023-01-17T11:48:56.357Z,4.92
2023-01-17T11:50:59.393Z,4.88
2023-01-17T11:53:18.081Z,4.90
2023-01-17T11:55:23.054Z,4.90
2023-01-17T11:57:31.105Z,4.90
2023-01-17T11:59:40.344Z,4.90
2023-01-17T12:01:57.623Z,4.89
2023-01-17T12:04:41.049Z,4.85
2023-01-17T12:07:06.748Z,4.84
2023-01-17T12:09:23.049Z,4.82
2023-01-17T12:12:42.133Z,4.87
2023-01-17T12:14:57.023Z,4.87
2023-01-17T12:17:45.547Z,4.90
2023-01-17T12:20:01.326Z,4.91
2023-01-17T12:22:34.052Z,4.90
2023-01-17T12:24:39.552Z,4.90
2023-01-17T12:27:12.793Z,4.93
2023-01-17T12:29:45.587Z,4.93
2023-01-17T12:32:03.046Z,4.96
2023-01-17T12:34:30.086Z,4.96
2023-01-17T12:36:48.412Z,4.95
2023-01-17T12:38:50.588Z,4.97
2023-01-17T12:41:23.494Z,4.94
2023-01-17T12:43:42.177Z,4.98
2023-01-17T12:45:45.825Z,4.98
2023-01-17T12:47:52.023Z,5.00
2023-01-17T12:50:20.295Z,5.08
2023-01-17T12:52:46.196Z,5.44
2023-01-17T12:54:52.400Z,5.65
2023-01-17T12:57:14.913Z,5.62
2023-01-17T12:59:26.369Z,5.62
2023-01-17T13:01:43.094Z,5.64
2023-01-17T13:04:00.354Z,5.62
2023-01-17T13:06:02.837Z,5.48
2023-01-17T13:08:36.674Z,5.47
2023-01-17T13:10:51.173Z,5.39
2023-01-17T13:12:54.716Z,5.34
2023-01-17T13:14:56.779Z,5.31
2023-01-17T13:17:42.789Z,5.26
2023-01-17T13:19:54.848Z,5.26
2023-01-17T13:21:56.951Z,5.23
2023-01-17T13:24:02.231Z,5.22
2023-01-17T13:26:04.596Z,5.27
2023-01-17T13:28:56.986Z,5.20
2023-01-17T13:31:18.485Z,5.19
2023-01-17T13:33:27.060Z,5.14
2023-01-17T13:36:07.128Z,5.13
2023-01-17T13:38:39.742Z,5.09
2023-01-17T13:40:55.847Z,5.08
2023-01-17T13:43:02.709Z,5.07
2023-01-17T13:45:49.684Z,5.09
2023-01-17T13:47:52.965Z,5.07
2023-01-17T13:49:56.830Z,5.09
2023-01-17T13:52:10.994Z,5.06
2023-01-17T13:54:32.919Z,5.05
2023-01-17T13:56:35.337Z,5.07
2023-01-17T13:58:54.982Z,5.07
2023-01-17T14:00:57.112Z,5.03
2023-01-17T14:02:59.194Z,5.06
2023-01-17T14:05:23.422Z,5.06
2023-01-17T14:07:26.366Z,5.02
2023-01-17T14:09:37.838Z,5.04
2023-01-17T14:12:00.260Z,5.03
2023-01-17T14:14:39.600Z,5.00
2023-01-17T14:16:41.681Z,5.00
2023-01-17T14:18:43.853Z,5.01
2023-01-17T14:20:49.184Z,4.99
2023-01-17T14:22:51.953Z,5.01
2023-01-17T14:25:09.964Z,5.01
2023-01-17T14:27:16.789Z,5.03
2023-01-17T14:29:48.692Z,4.98
2023-01-17T14:31:51.524Z,4.96
2023-01-17T14:33:54.288Z,4.95
2023-01-17T14:36:03.355Z,4.91
2023-01-17T14:38:29.512Z,4.95
2023-01-17T14:40:36.005Z,4.92
2023-01-17T14:42:38.026Z,4.91
2023-01-17T14:44:40.047Z,4.92
2023-01-17T14:46:42.056Z,4.92
2023-01-17T14:48:44.252Z,4.91
2023-01-17T14:50:48.650Z,4.93
2023-01-17T14:53:15.713Z,4.91
2023-01-17T14:55:19.457Z,4.92
2023-01-17T14:57:29.279Z,4.91
2023-01-17T14:59:31.365Z,4.92
2023-01-17T15:01:33.696Z,4.92
2023-01-17T15:05:53.347Z,4.88
2023-01-17T15:07:56.729Z,4.90
2023-01-17T15:09:58.754Z,4.89
2023-01-17T15:12:00.871Z,4.87
2023-01-17T15:14:05.947Z,4.87
2023-01-17T15:16:17.827Z,4.88
2023-01-17T15:18:26.869Z,4.89
2023-01-17T15:20:29.005Z,4.89
2023-01-17T15:22:31.041Z,4.89
2023-01-17T15:24:34.624Z,4.90
2023-01-17T15:26:44.735Z,4.89
2023-01-17T15:28:47.102Z,4.89
2023-01-17T15:31:15.488Z,4.87
2023-01-17T15:33:21.183Z,4.85
2023-01-17T15:35:23.683Z,4.85
2023-01-17T15:37:39.895Z,4.84
2023-01-17T15:39:42.005Z,4.82
2023-01-17T15:41:44.063Z,4.81
2023-01-17T15:43:46.159Z,4.80
2023-01-17T15:45:58.637Z,4.81
2023-01-17T15:48:40.631Z,4.77
2023-01-17T15:50:42.702Z,4.76
2023-01-17T15:52:52.038Z,4.77
2023-01-17T15:55:12.556Z,4.73
2023-01-17T15:57:24.607Z,4.74
2023-01-17T16:00:06.143Z,4.72
2023-01-17T16:02:25.973Z,4.70
2023-01-17T16:04:34.899Z,4.67
2023-01-17T16:06:45.782Z,4.65
2023-01-17T16:08:52.579Z,4.65
2023-01-17T16:10:58.615Z,4.63
2023-01-17T16:13:00.708Z,4.65
2023-01-17T16:15:12.519Z,4.62
2023-01-17T16:17:16.712Z,4.60
2023-01-17T16:19:18.902Z,4.63
2023-01-17T16:21:27.345Z,4.62
2023-01-17T16:23:29.412Z,4.62
2023-01-17T16:25:37.457Z,4.60
2023-01-17T16:27:41.515Z,4.57
2023-01-17T16:29:43.556Z,4.57
2023-01-17T16:31:45.590Z,4.55
2023-01-17T16:33:49.742Z,4.51
2023-01-17T16:35:53.908Z,4.50
2023-01-17T16:38:02.234Z,4.45
2023-01-17T16:40:04.885Z,4.48
2023-01-17T16:42:11.353Z,4.44
2023-01-17T16:44:13.577Z,4.45
2023-01-17T16:46:15.728Z,4.45
2023-01-17T16:48:19.349Z,4.46
2023-01-17T16:50:24.483Z,4.46
2023-01-17T16:52:26.622Z,4.43
2023-01-17T16:54:28.646Z,4.43
2023-01-17T16:56:30.697Z,4.43
2023-01-17T16:58:32.787Z,4.41
2023-01-17T17:00:34.806Z,4.37
2023-01-17T17:02:38.668Z,4.38
2023-01-17T17:04:41.948Z,4.36
2023-01-17T17:06:43.964Z,4.32
2023-01-17T17:08:46.051Z,4.29
2023-01-17T17:10:48.114Z,4.28
2023-01-17T17:12:50.201Z,4.26
2023-01-17T17:14:52.226Z,4.23
2023-01-17T17:16:54.380Z,4.17
2023-01-17T17:19:04.762Z,4.12
2023-01-17T17:21:06.912Z,4.10
2023-01-17T17:23:10.191Z,4.06
2023-01-17T17:25:12.429Z,4.02
2023-01-17T17:27:14.461Z,3.98
2023-01-17T17:29:16.603Z,3.95
2023-01-17T17:31:18.724Z,3.88
2023-01-17T17:37:05.555Z,3.75
2023-01-17T17:39:09.367Z,3.69
2023-01-17T17:41:11.465Z,3.66
2023-01-17T17:43:13.986Z,3.61
2023-01-17T17:45:16.305Z,3.59
2023-01-17T17:47:18.364Z,3.56
2023-01-17T17:49:22.762Z,3.54
2023-01-17T17:51:35.195Z,3.51
2023-01-17T17:53:37.315Z,3.42
2023-01-17T17:55:41.065Z,3.39
2023-01-17T17:57:43.219Z,3.37
2023-01-17T17:59:45.381Z,3.36
2023-01-17T18:01:48.087Z,3.30
2023-01-17T18:03:51.271Z,3.25
2023-01-17T18:05:53.460Z,3.21
2023-01-17T18:07:56.085Z,3.20
2023-01-17T18:12:00.579Z,3.14
2023-01-17T18:14:03.872Z,3.10
2023-01-17T18:16:14.753Z,3.09
2023-01-17T18:18:17.312Z,3.04
2023-01-17T18:20:20.255Z,3.00
2023-01-17T18:22:22.295Z,2.95
2023-01-17T18:24:25.113Z,2.95
2023-01-17T18:26:32.704Z,2.95
2023-01-17T18:28:34.860Z,2.93
2023-01-17T18:30:38.576Z,2.89
2023-01-17T18:32:41.946Z,2.89
2023-01-17T18:34:45.095Z,2.83
2023-01-17T18:36:47.666Z,2.80
2023-01-17T18:38:49.873Z,2.76
2023-01-17T18:40:51.903Z,2.78
2023-01-17T18:42:54.403Z,2.73
2023-01-17T18:44:56.597Z,2.71
2023-01-17T18:47:02.095Z,2.69
2023-01-17T18:49:04.771Z,2.64
2023-01-17T18:51:08.727Z,2.61
2023-01-17T18:53:11.531Z,2.59
2023-01-17T18:55:13.665Z,2.60
2023-01-17T18:57:15.852Z,2.49
2023-01-17T18:59:23.602Z,2.47
2023-01-17T19:01:28.704Z,2.40
2023-01-17T19:03:31.610Z,2.37
2023-01-17T19:05:36.241Z,2.38
2023-01-17T19:07:38.233Z,2.35
2023-01-17T19:09:40.359Z,2.26
2023-01-17T19:11:44.580Z,2.26
2023-01-17T19:13:46.704Z,2.20
2023-01-17T19:15:48.756Z,2.12
2023-01-17T19:17:50.751Z,2.06
2023-01-17T19:19:52.798Z,2.01
2023-01-17T19:21:54.928Z,1.98
2023-01-17T19:23:57.702Z,1.92
2023-01-17T19:25:59.737Z,1.90
2023-01-17T19:28:01.894Z,1.87
2023-01-17T19:30:04.420Z,1.84
2023-01-17T19:32:07.463Z,1.81
2023-01-17T19:34:09.970Z,1.74
2023-01-17T19:36:17.060Z,1.71
2023-01-17T19:38:19.077Z,1.71
2023-01-17T19:40:21.264Z,1.69
2023-01-17T19:42:23.385Z,1.69
2023-01-17T19:44:25.506Z,1.66
2023-01-17T19:46:28.553Z,1.63
2023-01-17T19:48:30.799Z,1.60
2023-01-17T19:50:33.125Z,1.60
2023-01-17T19:52:35.851Z,1.56
2023-01-17T19:54:37.789Z,1.51
2023-01-17T19:56:40.017Z,1.47
2023-01-17T19:58:42.442Z,1.42
2023-01-17T20:00:46.793Z,1.41
2023-01-17T20:02:49.037Z,1.43
2023-01-17T20:04:51.258Z,1.42
2023-01-17T20:06:53.613Z,1.37
2023-01-17T20:08:55.713Z,1.33
2023-01-17T20:11:05.483Z,1.29
2023-01-17T20:13:07.558Z,1.25
2023-01-17T20:15:10.007Z,1.25
2023-01-17T20:17:12.304Z,1.25
2023-01-17T20:19:14.384Z,1.25
2023-01-17T20:21:24.973Z,1.19
2023-01-17T20:23:27.054Z,1.17
2023-01-17T20:25:33.478Z,1.14
2023-01-17T20:27:36.648Z,1.13
2023-01-17T20:29:40.759Z,1.11
2023-01-17T20:31:43.303Z,1.06
2023-01-17T20:33:47.402Z,1.05
2023-01-17T20:35:55.573Z,1.03
2023-01-17T20:38:10.480Z,1.01
2023-01-17T20:40:12.963Z,0.96
2023-01-17T20:42:15.102Z,0.96
2023-01-17T20:44:19.770Z,0.93
2023-01-17T20:46:24.321Z,0.89
2023-01-17T20:48:26.611Z,0.91
2023-01-17T20:54:26.976Z,0.90
2023-01-17T20:56:34.748Z,0.89
2023-01-17T20:58:38.778Z,0.86
2023-01-17T21:00:41.335Z,0.79
2023-01-17T21:02:43.738Z,0.75
2023-01-17T21:04:46.075Z,0.72
2023-01-17T21:06:51.667Z,0.65
2023-01-17T21:08:53.776Z,0.63
2023-01-17T21:10:55.932Z,0.60
2023-01-17T21:13:00.922Z,0.55
2023-01-17T21:15:03.043Z,0.56
2023-01-17T21:17:05.156Z,0.49
2023-01-17T21:19:12.022Z,0.42
2023-01-17T21:21:22.020Z,0.35
2023-01-17T21:23:29.333Z,0.30
2023-01-17T21:25:32.790Z,0.26
2023-01-17T21:27:36.667Z,0.27
2023-01-17T21:29:39.038Z,0.33
2023-01-17T21:31:42.910Z,0.35
2023-01-17T21:33:45.353Z,0.37
2023-01-17T21:35:47.743Z,0.32
2023-01-17T21:37:50.395Z,0.35
2023-01-17T21:39:55.001Z,0.30
2023-01-17T21:42:05.517Z,0.29
2023-01-17T21:44:13.419Z,0.28
2023-01-17T21:59:00.993Z,-0.02
2023-01-17T22:03:37.245Z,-0.12
2023-01-17T22:06:05.044Z,-0.21
2023-01-17T22:11:37.730Z,-0.31
2023-01-17T23:02:50.304Z,-0.52
2023-01-17T23:12:56.038Z,-0.61
2023-01-17T23:18:18.137Z,-0.62
2023-01-17T23:22:44.396Z,-0.71
2023-01-17T23:25:28.038Z,-0.76
2023-01-17T23:28:21.595Z,-0.79
